Time;durP1;ratioP1;P1;durP2;ratioP2;P2;SDS_P1;SDS_P2;PMS_P1;PMS_P2;Temp;Humidity;BMP_temperature;BMP_pressure;BME280_temperature;BME280_humidity;BME280_pressure;Samples;Min_cycle;Max_cycle;Signal;HPM_P1;HPM_P2
2023/03/30 00:00:31;;;;;;;25.70;15.60;;;;;;;2.96;76.57;98795.55;133606;1289;24910;-89
2023/03/30 00:03:53;;;;;;;26.10;13.80;;;;;;;2.99;76.33;98795.15;133748;1289;22537;-86
2023/03/30 00:06:56;;;;;;;22.60;13.00;;;;;;;3.00;76.20;98790.20;133665;1289;22493;-86
2023/03/30 00:10:01;;;;;;;26.80;15.50;;;;;;;3.02;76.25;98788.30;133572;1289;23856;-88
2023/03/30 00:13:04;;;;;;;22.90;13.70;;;;;;;3.04;76.21;98784.52;133292;1289;22590;-87
2023/03/30 00:16:07;;;;;;;23.10;15.30;;;;;;;3.06;76.42;98784.51;133931;1289;22499;-86
2023/03/30 00:19:10;;;;;;;23.10;13.60;;;;;;;3.08;76.31;98785.90;133727;1289;24258;-86
2023/03/30 00:22:13;;;;;;;23.20;13.80;;;;;;;3.10;76.15;98786.02;133422;1289;22828;-87
2023/03/30 00:25:16;;;;;;;27.10;15.30;;;;;;;3.13;76.19;98782.71;133103;1289;22512;-87
2023/03/30 00:28:19;;;;;;;22.70;13.40;;;;;;;3.16;75.88;98779.91;132783;1289;22628;-87
2023/03/30 00:31:21;;;;;;;24.90;13.10;;;;;;;3.19;75.89;98779.96;132022;1289;22546;-88
2023/03/30 00:34:24;;;;;;;21.40;14.50;;;;;;;3.20;75.97;98767.41;132342;1290;24249;-87
2023/03/30 00:37:28;;;;;;;22.20;14.40;;;;;;;3.22;76.10;98764.85;132538;1290;22549;-88
2023/03/30 00:40:31;;;;;;;21.10;13.80;;;;;;;3.26;75.81;98764.88;132257;1290;22592;-90
2023/03/30 00:43:34;;;;;;;21.80;13.60;;;;;;;3.29;76.15;98762.73;131987;1290;22553;-90
2023/03/30 00:46:37;;;;;;;23.80;14.10;;;;;;;3.31;76.21;98754.48;131858;1290;22666;-88
2023/03/30 00:49:40;;;;;;;18.40;12.40;;;;;;;3.33;76.03;98752.02;131801;1290;22695;-89
2023/03/30 00:52:43;;;;;;;20.40;12.90;;;;;;;3.36;76.46;98747.27;132136;1289;22647;-89
2023/03/30 00:55:46;;;;;;;20.40;13.40;;;;;;;3.38;76.14;98747.92;132061;1290;25265;-88
2023/03/30 00:58:49;;;;;;;23.20;13.10;;;;;;;3.41;76.25;98744.92;132308;1290;24202;-86
2023/03/30 01:01:52;;;;;;;23.40;14.80;;;;;;;3.45;76.34;98745.80;133996;1290;24244;-86
2023/03/30 01:04:55;;;;;;;23.30;14.00;;;;;;;3.48;76.64;98747.55;135517;1290;23174;-85
2023/03/30 01:07:58;;;;;;;24.90;14.20;;;;;;;3.52;76.51;98746.00;135708;1290;22585;-86
2023/03/30 01:11:01;;;;;;;25.30;14.30;;;;;;;3.57;76.48;98748.00;135594;1289;24025;-84
2023/03/30 01:14:04;;;;;;;21.70;13.10;;;;;;;3.61;76.78;98741.56;133972;1286;23982;-84
2023/03/30 01:17:07;;;;;;;26.60;14.10;;;;;;;3.66;76.76;98738.25;133939;1290;23957;-84
2023/03/30 01:20:11;;;;;;;24.60;14.10;;;;;;;3.69;76.60;98737.93;133976;1290;23920;-84
2023/03/30 01:23:14;;;;;;;21.40;13.20;;;;;;;3.73;76.88;98736.23;133962;1290;22570;-85
2023/03/30 01:26:17;;;;;;;25.10;13.90;;;;;;;3.75;77.12;98734.20;133590;1290;22682;-87
2023/03/30 01:29:20;;;;;;;29.40;14.50;;;;;;;3.78;76.92;98729.73;133311;1290;22557;-87
2023/03/30 01:32:23;;;;;;;24.10;13.70;;;;;;;3.82;77.15;98732.66;133152;1290;22728;-88
2023/03/30 01:35:26;;;;;;;19.30;13.70;;;;;;;3.84;77.28;98727.00;133867;1290;22552;-86
2023/03/30 01:38:29;;;;;;;25.70;13.60;;;;;;;3.86;77.45;98721.64;132762;1290;22553;-87
2023/03/30 01:41:32;;;;;;;22.10;13.30;;;;;;;3.88;77.60;98719.70;133469;1290;22744;-86
2023/03/30 01:44:36;;;;;;;23.70;13.80;;;;;;;3.90;77.48;98718.48;133878;1290;22567;-85
2023/03/30 01:47:39;;;;;;;22.50;14.50;;;;;;;3.92;77.82;98717.23;133866;1290;23915;-86
2023/03/30 01:50:42;;;;;;;19.50;13.60;;;;;;;3.94;78.00;98708.41;133860;1290;22574;-87
2023/03/30 01:53:45;;;;;;;23.30;14.50;;;;;;;3.96;78.38;98709.77;133863;1290;24016;-87
2023/03/30 01:56:47;;;;;;;24.70;15.50;;;;;;;4.00;78.34;98704.95;133909;1290;22680;-87
2023/03/30 01:59:51;;;;;;;22.90;14.30;;;;;;;4.03;78.68;98706.30;133919;1290;23936;-87
2023/03/30 02:02:54;;;;;;;19.60;13.10;;;;;;;4.05;78.96;98704.69;133918;1290;25279;-86
2023/03/30 02:05:57;;;;;;;24.50;15.10;;;;;;;4.05;79.22;98701.09;135428;1290;22513;-85
2023/03/30 02:09:00;;;;;;;26.50;14.90;;;;;;;4.05;79.33;98702.61;135564;1290;22547;-85
2023/03/30 02:12:03;;;;;;;28.10;14.10;;;;;;;4.06;79.38;98703.98;135532;1290;22634;-85
2023/03/30 02:15:06;;;;;;;25.50;15.30;;;;;;;4.07;79.68;98702.45;133958;1290;22625;-85
2023/03/30 02:18:09;;;;;;;24.40;14.10;;;;;;;4.10;80.03;98703.23;133967;1290;24776;-85
2023/03/30 02:21:12;;;;;;;21.20;13.70;;;;;;;4.11;80.22;98703.13;133993;1282;22729;-85
2023/03/30 02:24:18;;;;;;;23.80;14.50;;;;;;;4.12;80.24;98701.67;133812;1290;23809;-88
2023/03/30 02:27:21;;;;;;;19.70;14.30;;;;;;;4.13;80.59;98695.39;133082;1290;23295;-88
2023/03/30 02:30:23;;;;;;;21.00;14.10;;;;;;;4.12;80.89;98689.20;133085;1290;22567;-86
2023/03/30 02:33:26;;;;;;;24.70;15.00;;;;;;;4.12;81.23;98689.05;132626;1290;280318;-86
2023/03/30 02:36:29;;;;;;;26.40;15.00;;;;;;;4.10;81.37;98683.49;132782;1289;22739;-88
2023/03/30 02:39:32;;;;;;;23.50;13.50;;;;;;;4.09;81.52;98679.96;132498;1290;24352;-86
2023/03/30 02:42:35;;;;;;;26.10;15.60;;;;;;;4.08;82.09;98679.33;132619;1290;23911;-85
2023/03/30 02:45:38;;;;;;;25.70;13.80;;;;;;;4.09;82.49;98674.98;132519;1290;23896;-88
2023/03/30 02:48:41;;;;;;;24.40;13.70;;;;;;;4.13;82.66;98671.38;132796;1290;22861;-87
2023/03/30 02:51:44;;;;;;;24.30;13.00;;;;;;;4.19;83.46;98674.41;132410;1290;22656;-90
2023/03/30 02:54:47;;;;;;;24.70;14.50;;;;;;;4.25;83.64;98672.59;135248;1286;22246;-86
2023/03/30 02:57:50;;;;;;;27.30;14.90;;;;;;;4.30;83.81;98666.67;135837;1290;25427;-87
2023/03/30 03:00:53;;;;;;;25.00;13.90;;;;;;;4.34;84.12;98665.31;136051;1289;22830;-86
2023/03/30 03:03:57;;;;;;;24.90;13.80;;;;;;;4.35;84.31;98659.25;134364;1289;22835;-85
2023/03/30 03:07:01;;;;;;;24.90;14.10;;;;;;;4.38;84.33;98659.92;134088;1289;22783;-87
2023/03/30 03:10:05;;;;;;;21.60;13.00;;;;;;;4.37;84.30;98657.73;134148;1289;22600;-87
2023/03/30 03:13:08;;;;;;;25.30;14.70;;;;;;;4.35;84.74;98649.40;133802;1289;24229;-86
2023/03/30 03:16:12;;;;;;;21.20;14.10;;;;;;;4.35;85.29;98647.36;132611;1289;24231;-88
2023/03/30 03:19:15;;;;;;;21.10;12.80;;;;;;;4.36;85.39;98645.90;133419;1289;22551;-86
2023/03/30 03:22:18;;;;;;;19.50;12.50;;;;;;;4.33;85.87;98643.05;132625;1289;24430;-85
2023/03/30 03:25:21;;;;;;;21.10;12.60;;;;;;;4.30;86.00;98643.34;132509;1289;23709;-89
2023/03/30 03:28:24;;;;;;;16.60;11.90;;;;;;;4.28;86.68;98640.02;132394;1289;22547;-84
2023/03/30 03:31:27;;;;;;;21.20;12.00;;;;;;;4.25;86.83;98635.13;132203;1289;22550;-92
2023/03/30 03:34:32;;;;;;;18.50;12.50;;;;;;;4.23;87.53;98631.20;132310;1289;23937;-85
2023/03/30 03:37:35;;;;;;;18.70;11.70;;;;;;;4.22;88.04;98630.44;132015;1289;23230;-84
2023/03/30 03:40:38;;;;;;;21.60;13.10;;;;;;;4.23;88.26;98628.11;131920;1289;22550;-86
2023/03/30 03:43:41;;;;;;;19.80;12.90;;;;;;;4.24;88.78;98620.00;132213;1289;23923;-86
2023/03/30 03:46:44;;;;;;;21.20;12.00;;;;;;;4.29;89.32;98616.60;132035;1289;25446;-86
2023/03/30 03:49:47;;;;;;;22.00;11.90;;;;;;;4.37;89.38;98615.23;132053;1289;23017;-86
2023/03/30 03:52:50;;;;;;;19.50;11.70;;;;;;;4.44;89.89;98611.30;132127;1289;22588;-88
2023/03/30 03:55:53;;;;;;;17.80;12.00;;;;;;;4.50;89.92;98606.67;133625;1289;25295;-87
2023/03/30 03:58:56;;;;;;;18.50;12.10;;;;;;;4.56;90.13;98598.02;132237;1289;22571;-85
2023/03/30 04:01:59;;;;;;;18.00;11.70;;;;;;;4.61;90.53;98597.61;132530;1289;25305;-89
2023/03/30 04:05:02;;;;;;;25.80;12.60;;;;;;;4.62;90.37;98594.38;132310;1285;25446;-88
2023/03/30 04:08:05;;;;;;;21.50;12.60;;;;;;;4.63;90.45;98589.61;132123;1289;24224;-88
2023/03/30 04:11:07;;;;;;;17.20;12.30;;;;;;;4.65;90.84;98592.00;132170;1289;24240;-89
2023/03/30 04:14:10;;;;;;;20.70;12.10;;;;;;;4.64;91.06;98590.91;131792;1289;24194;-87
2023/03/30 04:17:13;;;;;;;15.20;10.90;;;;;;;4.61;91.08;98587.86;132505;1289;22530;-88
2023/03/30 04:20:16;;;;;;;14.30;10.60;;;;;;;4.59;91.31;98593.58;133022;1289;22644;-88
2023/03/30 04:23:20;;;;;;;25.10;13.00;;;;;;;4.57;91.52;98599.11;132174;1289;25495;-89
2023/03/30 04:26:23;;;;;;;16.30;11.30;;;;;;;4.59;92.16;98596.20;132345;1289;22578;-85
2023/03/30 04:29:26;;;;;;;20.90;11.30;;;;;;;4.60;92.26;98591.09;131814;1289;22764;-86
2023/03/30 04:32:33;;;;;;;20.60;11.90;;;;;;;4.62;92.41;98594.24;131662;1289;22550;-86
2023/03/30 04:35:36;;;;;;;23.60;12.30;;;;;;;4.66;92.64;98586.05;131638;1289;22638;-85
2023/03/30 04:38:41;;;;;;;18.30;12.00;;;;;;;4.69;92.79;98579.64;131689;1289;22547;-85
2023/03/30 04:41:45;;;;;;;18.40;11.60;;;;;;;4.76;93.11;98578.48;131710;1289;25505;-86
2023/03/30 04:44:48;;;;;;;17.30;12.10;;;;;;;4.83;93.20;98566.20;132120;1289;25438;-88
2023/03/30 04:47:50;;;;;;;20.80;12.10;;;;;;;4.89;93.45;98566.69;133185;1289;23907;-83
2023/03/30 04:50:54;;;;;;;19.00;11.50;;;;;;;4.97;93.35;98565.11;134184;1288;23915;-82
2023/03/30 04:53:56;;;;;;;19.70;11.50;;;;;;;5.04;93.13;98561.75;134195;1289;22578;-84
2023/03/30 04:56:59;;;;;;;21.50;12.50;;;;;;;5.13;93.38;98555.02;133328;1289;23089;-86
2023/03/30 05:00:04;;;;;;;16.60;11.40;;;;;;;5.22;93.16;98549.45;132492;1286;25675;-87
2023/03/30 05:03:07;;;;;;;17.10;10.70;;;;;;;5.33;92.78;98544.92;132888;1289;22567;-85
2023/03/30 05:06:11;;;;;;;18.00;10.60;;;;;;;5.45;92.47;98543.05;132388;1267;22529;-86
2023/03/30 05:09:14;;;;;;;18.00;11.40;;;;;;;5.57;92.07;98543.48;132211;1289;22809;-86
2023/03/30 05:12:17;;;;;;;15.40;10.40;;;;;;;5.67;91.78;98540.54;132264;1289;22570;-86
2023/03/30 05:15:20;;;;;;;22.20;11.80;;;;;;;5.75;91.65;98541.48;132455;1289;22584;-85
2023/03/30 05:18:23;;;;;;;19.50;11.70;;;;;;;5.81;91.34;98545.71;132395;1274;24960;-85
2023/03/30 05:21:26;;;;;;;18.70;12.30;;;;;;;5.87;91.09;98544.91;131670;1289;25285;-86
2023/03/30 05:24:28;;;;;;;16.40;11.20;;;;;;;5.93;90.88;98545.53;131682;1289;22562;-85
2023/03/30 05:27:31;;;;;;;21.60;13.50;;;;;;;5.99;90.61;98540.10;131737;1289;24248;-86
2023/03/30 05:30:34;;;;;;;19.20;11.70;;;;;;;6.08;90.14;98534.95;131660;1289;24292;-86
2023/03/30 05:33:37;;;;;;;19.80;12.50;;;;;;;6.16;89.65;98536.10;131886;1289;22548;-87
2023/03/30 05:36:40;;;;;;;15.50;10.30;;;;;;;6.27;89.61;98539.82;131899;1289;24263;-85
2023/03/30 05:39:43;;;;;;;19.70;12.10;;;;;;;6.38;89.25;98535.53;132146;1289;24260;-86
2023/03/30 05:42:46;;;;;;;18.80;11.40;;;;;;;6.43;88.84;98531.83;132169;1289;22545;-86
2023/03/30 05:45:49;;;;;;;17.60;10.90;;;;;;;6.47;88.62;98535.17;131986;1289;25491;-86
2023/03/30 05:48:52;;;;;;;15.70;9.90;;;;;;;6.49;88.65;98529.95;131947;1289;22560;-86
2023/03/30 05:51:55;;;;;;;13.50;9.50;;;;;;;6.50;88.17;98526.02;131992;1289;25318;-85
2023/03/30 05:54:58;;;;;;;12.30;9.10;;;;;;;6.50;87.86;98524.86;131878;1289;22772;-86
2023/03/30 05:58:01;;;;;;;14.90;9.30;;;;;;;6.51;87.92;98525.12;131966;1289;25369;-86
2023/03/30 06:01:04;;;;;;;11.20;8.80;;;;;;;6.54;87.90;98523.69;132086;1289;22647;-86
2023/03/30 06:04:08;;;;;;;15.40;9.40;;;;;;;6.57;87.96;98524.83;131925;1289;23328;-87
2023/03/30 06:07:10;;;;;;;12.40;8.80;;;;;;;6.61;87.77;98524.78;132011;1289;24218;-86
2023/03/30 06:10:13;;;;;;;11.60;8.20;;;;;;;6.65;87.39;98520.33;132236;1289;24799;-88
2023/03/30 06:13:16;;;;;;;13.00;8.20;;;;;;;6.71;87.08;98518.86;132407;1289;22762;-87
2023/03/30 06:16:20;;;;;;;12.50;8.10;;;;;;;6.78;86.58;98518.29;131996;1277;25371;-88
2023/03/30 06:19:23;;;;;;;15.30;8.90;;;;;;;6.89;86.04;98518.52;131980;1289;22581;-85
2023/03/30 06:22:26;;;;;;;12.90;8.30;;;;;;;7.03;85.71;98522.64;131640;1284;22549;-87
2023/03/30 06:25:29;;;;;;;12.60;9.20;;;;;;;7.16;85.29;98521.13;131981;1289;22566;-86
2023/03/30 06:28:31;;;;;;;19.80;12.40;;;;;;;7.23;84.82;98518.94;132206;1289;25437;-87
2023/03/30 06:31:35;;;;;;;15.70;9.90;;;;;;;7.29;84.28;98525.94;131973;1289;22563;-85
2023/03/30 06:34:38;;;;;;;17.10;11.20;;;;;;;7.32;83.95;98526.98;132000;1289;25243;-89
2023/03/30 06:37:41;;;;;;;15.20;10.90;;;;;;;7.35;83.64;98522.85;131970;1289;25515;-86
2023/03/30 06:40:44;;;;;;;14.30;9.50;;;;;;;7.37;83.46;98527.43;132182;1289;24211;-83
2023/03/30 06:43:47;;;;;;;14.10;10.10;;;;;;;7.39;83.14;98523.33;134250;1286;22485;-83
2023/03/30 06:46:50;;;;;;;14.30;9.40;;;;;;;7.39;83.30;98519.27;134108;1289;22495;-83
2023/03/30 06:49:51;;;;;;;13.40;9.30;;;;;;;7.44;83.61;98518.65;133995;1289;22591;-84
2023/03/30 06:52:54;;;;;;;11.80;9.60;;;;;;;7.53;83.21;98517.45;132422;1289;24211;-84
2023/03/30 06:55:57;;;;;;;15.50;10.90;;;;;;;7.66;82.60;98515.36;132605;1289;24328;-85
2023/03/30 06:59:01;;;;;;;14.50;9.80;;;;;;;7.82;82.33;98513.15;132523;1289;22550;-87
2023/03/30 07:02:05;;;;;;;16.60;10.20;;;;;;;8.01;82.42;98515.89;132340;1289;22557;-86
2023/03/30 07:05:08;;;;;;;12.90;10.00;;;;;;;8.20;81.67;98509.38;131956;1289;22680;-86
2023/03/30 07:08:10;;;;;;;13.50;8.80;;;;;;;8.41;81.42;98510.74;131994;1289;22731;-85
2023/03/30 07:11:13;;;;;;;11.70;8.10;;;;;;;8.63;80.43;98507.64;132006;1289;24280;-86
2023/03/30 07:14:16;;;;;;;8.80;7.60;;;;;;;8.87;79.81;98513.14;131967;1289;24071;-86
2023/03/30 07:17:20;;;;;;;11.30;7.70;;;;;;;9.10;79.09;98507.53;131900;1289;23028;-85
2023/03/30 07:20:23;;;;;;;9.90;7.20;;;;;;;9.37;78.61;98503.27;132023;1289;22927;-85
2023/03/30 07:23:26;;;;;;;7.90;6.90;;;;;;;9.59;77.43;98495.08;131669;1289;24383;-84
2023/03/30 07:26:29;;;;;;;10.60;7.30;;;;;;;9.72;75.96;98502.50;131635;1289;24224;-86
2023/03/30 07:29:32;;;;;;;11.70;8.10;;;;;;;9.75;75.33;98500.34;131622;1289;22784;-86
2023/03/30 07:32:35;;;;;;;11.30;8.30;;;;;;;9.72;75.12;98496.69;131615;1288;22808;-87
2023/03/30 07:35:38;;;;;;;10.20;7.80;;;;;;;9.73;74.86;98496.09;131696;1289;22548;-86
2023/03/30 07:38:41;;;;;;;12.80;8.50;;;;;;;9.78;74.52;98499.42;131664;1289;22539;-86
2023/03/30 07:41:44;;;;;;;13.40;8.10;;;;;;;9.86;74.65;98497.65;131684;1289;23896;-87
2023/03/30 07:44:47;;;;;;;12.10;8.10;;;;;;;10.00;74.76;98487.65;131935;1284;24422;-86
2023/03/30 07:47:50;;;;;;;12.10;8.60;;;;;;;10.14;74.06;98484.51;131901;1289;25503;-85
2023/03/30 07:50:52;;;;;;;10.50;7.70;;;;;;;10.29;73.50;98482.50;131994;1289;22636;-86
2023/03/30 07:53:55;;;;;;;13.00;8.00;;;;;;;10.45;72.98;98477.21;131982;1289;23323;-86
2023/03/30 07:56:58;;;;;;;10.90;8.50;;;;;;;10.64;72.31;98474.05;132201;1289;25582;-86
2023/03/30 08:00:01;;;;;;;9.50;7.00;;;;;;;10.85;72.41;98476.58;132613;1289;22506;-85
2023/03/30 08:03:04;;;;;;;9.70;6.40;;;;;;;11.07;70.43;98471.46;132139;1289;22661;-84
2023/03/30 08:06:07;;;;;;;7.40;5.70;;;;;;;11.27;69.48;98461.20;132638;1289;25321;-87
2023/03/30 08:09:10;;;;;;;8.90;6.40;;;;;;;11.43;69.28;98461.72;132185;1289;25280;-87
2023/03/30 08:12:13;;;;;;;10.20;7.60;;;;;;;11.49;68.29;98460.66;132103;1266;24327;-87
2023/03/30 08:15:16;;;;;;;9.90;6.90;;;;;;;11.48;67.80;98455.13;132363;1289;22779;-85
2023/03/30 08:18:19;;;;;;;7.70;6.30;;;;;;;11.53;67.75;98458.23;132020;1289;22555;-85
2023/03/30 08:21:24;;;;;;;7.70;6.40;;;;;;;11.65;67.73;98454.61;131890;1289;22558;-87
2023/03/30 08:24:27;;;;;;;7.80;5.80;;;;;;;11.80;67.35;98444.66;131888;1289;26346;-88
2023/03/30 08:27:30;;;;;;;7.80;6.00;;;;;;;11.93;66.53;98438.96;131885;1289;25588;-88
2023/03/30 08:30:33;;;;;;;10.00;6.00;;;;;;;12.06;66.21;98442.14;131931;1289;23904;-87
2023/03/30 08:33:36;;;;;;;8.20;5.80;;;;;;;12.16;65.78;98440.73;133102;1289;25337;-82
2023/03/30 08:36:38;;;;;;;8.70;6.70;;;;;;;12.23;65.48;98436.55;134192;1289;22690;-83
2023/03/30 08:39:42;;;;;;;10.60;5.80;;;;;;;12.36;65.42;98438.25;134175;1289;25308;-84
2023/03/30 08:42:46;;;;;;;11.50;6.40;;;;;;;12.51;64.35;98443.84;133207;1289;22584;-84
2023/03/30 08:45:49;;;;;;;6.90;5.80;;;;;;;12.67;63.84;98448.55;132764;1287;22551;-85
2023/03/30 08:48:52;;;;;;;5.70;5.10;;;;;;;12.81;64.31;98450.52;132596;1289;25486;-84
2023/03/30 08:51:55;;;;;;;6.90;5.50;;;;;;;12.96;63.66;98440.88;132193;1289;22496;-86
2023/03/30 08:54:58;;;;;;;8.90;6.20;;;;;;;13.08;63.14;98440.06;131715;1289;22535;-87
2023/03/30 08:58:11;;;;;;;7.00;5.40;;;;;;;13.20;62.65;98435.84;131676;1289;22552;-86
2023/03/30 09:01:14;;;;;;;6.90;5.10;;;;;;;13.28;62.55;98435.45;131951;1289;22582;-86
2023/03/30 09:04:17;;;;;;;8.20;5.70;;;;;;;13.32;61.98;98439.44;131897;1289;25524;-86
2023/03/30 09:07:20;;;;;;;6.30;5.00;;;;;;;13.29;62.06;98445.08;131918;1289;24280;-85
2023/03/30 09:10:23;;;;;;;7.30;6.10;;;;;;;13.18;62.07;98448.48;132040;1289;22537;-87
2023/03/30 09:13:26;;;;;;;6.40;5.60;;;;;;;13.03;62.61;98453.78;132632;1289;25431;-87
2023/03/30 09:16:29;;;;;;;10.20;6.00;;;;;;;12.89;63.02;98441.80;132215;1289;22634;-86
2023/03/30 09:19:32;;;;;;;8.90;5.90;;;;;;;12.74;63.08;98438.46;132299;1287;25458;-85
2023/03/30 09:22:35;;;;;;;11.10;6.80;;;;;;;12.64;63.48;98425.52;134535;1286;22540;-84
2023/03/30 09:25:39;;;;;;;13.40;6.60;;;;;;;12.57;63.36;98420.69;135931;1289;22899;-83
2023/03/30 09:28:42;;;;;;;8.40;6.10;;;;;;;12.47;63.16;98410.73;135974;1289;22590;-83
2023/03/30 09:31:45;;;;;;;10.60;6.70;;;;;;;12.43;63.54;98401.17;134524;1289;23645;-85
2023/03/30 09:34:48;;;;;;;12.20;7.20;;;;;;;12.53;63.73;98392.64;133467;1289;22548;-87
2023/03/30 09:37:51;;;;;;;10.00;6.30;;;;;;;12.64;63.74;98382.77;133736;1289;25436;-86
2023/03/30 09:40:55;;;;;;;13.10;7.40;;;;;;;12.81;63.46;98383.02;133204;1289;22628;-85
2023/03/30 09:43:59;;;;;;;7.90;6.30;;;;;;;13.05;63.05;98371.65;132065;1288;22633;-87
2023/03/30 09:47:01;;;;;;;9.60;7.40;;;;;;;13.32;62.73;98367.45;132001;1289;24072;-86
2023/03/30 09:50:04;;;;;;;10.90;6.80;;;;;;;13.50;62.05;98363.85;131946;1285;25368;-85
2023/03/30 09:53:08;;;;;;;9.20;7.40;;;;;;;13.58;61.83;98365.20;131944;1289;22536;-87
2023/03/30 09:56:11;;;;;;;8.20;6.30;;;;;;;13.53;61.23;98367.23;132168;1289;22670;-85
2023/03/30 09:59:14;;;;;;;7.10;6.10;;;;;;;13.39;60.97;98356.75;131914;1285;25293;-85
2023/03/30 10:02:17;;;;;;;8.50;6.20;;;;;;;13.20;60.89;98360.42;131924;1289;23298;-87
2023/03/30 10:05:20;;;;;;;8.20;6.60;;;;;;;13.03;60.89;98366.31;131936;1289;24253;-86
2023/03/30 10:08:23;;;;;;;10.40;6.80;;;;;;;12.87;61.00;98364.88;131858;1289;22591;-85
2023/03/30 10:11:26;;;;;;;11.60;6.80;;;;;;;12.72;61.08;98358.77;132064;1289;24236;-85
2023/03/30 10:14:30;;;;;;;8.20;6.50;;;;;;;12.66;61.43;98343.73;132005;1289;23221;-87
2023/03/30 10:17:33;;;;;;;7.10;6.00;;;;;;;12.73;61.35;98334.47;132007;1289;25267;-85
2023/03/30 10:20:37;;;;;;;12.30;6.50;;;;;;;12.85;61.24;98327.32;132109;1289;23944;-85
2023/03/30 10:23:41;;;;;;;9.70;6.20;;;;;;;13.00;61.08;98316.42;134113;1289;22701;-83
2023/03/30 10:26:44;;;;;;;7.10;6.30;;;;;;;13.20;61.10;98307.61;134153;1289;22639;-84
2023/03/30 10:29:47;;;;;;;10.20;6.60;;;;;;;13.39;60.86;98307.27;133926;1286;24210;-87
2023/03/30 10:32:50;;;;;;;9.60;5.60;;;;;;;13.57;60.40;98302.93;132239;1289;26543;-86
2023/03/30 10:35:55;;;;;;;7.20;5.90;;;;;;;13.78;60.10;98302.23;132418;1289;22532;-86
2023/03/30 10:38:58;;;;;;;10.20;6.50;;;;;;;14.06;59.97;98294.27;132363;1289;24384;-84
2023/03/30 10:42:02;;;;;;;10.90;5.80;;;;;;;14.28;59.71;98288.16;132049;1289;23919;-85
2023/03/30 10:45:06;;;;;;;8.40;6.40;;;;;;;14.38;59.25;98280.13;132022;1289;23896;-87
2023/03/30 10:48:09;;;;;;;11.10;6.50;;;;;;;14.40;58.69;98284.19;133612;1289;22547;-86
2023/03/30 10:51:12;;;;;;;10.20;7.10;;;;;;;14.42;58.82;98274.65;132474;1289;25487;-87
2023/03/30 10:54:15;;;;;;;9.30;5.80;;;;;;;14.48;58.93;98270.83;131968;1286;23923;-88
2023/03/30 10:57:18;;;;;;;8.70;6.20;;;;;;;14.57;58.29;98263.47;131884;1289;24209;-85
2023/03/30 11:00:21;;;;;;;8.30;5.90;;;;;;;14.61;58.43;98257.30;131656;1289;24281;-86
2023/03/30 11:03:24;;;;;;;8.70;7.10;;;;;;;14.76;58.35;98252.14;132020;1289;22546;-88
2023/03/30 11:06:28;;;;;;;13.10;8.60;;;;;;;14.96;58.35;98246.80;131948;1289;24764;-88
2023/03/30 11:09:31;;;;;;;11.10;6.80;;;;;;;15.17;58.15;98244.63;131944;1289;22539;-86
2023/03/30 11:12:34;;;;;;;11.20;7.00;;;;;;;15.37;57.88;98253.73;131933;1289;22538;-87
2023/03/30 11:15:37;;;;;;;12.70;7.40;;;;;;;15.52;57.12;98253.46;132288;1289;22536;-86
2023/03/30 11:18:40;;;;;;;11.00;6.80;;;;;;;15.65;56.60;98248.82;132572;1289;23851;-86
2023/03/30 11:21:42;;;;;;;11.80;7.50;;;;;;;15.78;56.48;98244.21;131913;1289;22837;-86
2023/03/30 11:24:45;;;;;;;12.70;7.90;;;;;;;15.91;56.83;98237.21;132003;1289;25512;-86
2023/03/30 11:27:48;;;;;;;8.20;5.70;;;;;;;16.04;55.82;98232.92;131911;1288;22781;-86
2023/03/30 11:30:51;;;;;;;9.20;7.50;;;;;;;16.07;55.69;98230.31;131940;1289;24318;-88
2023/03/30 11:33:54;;;;;;;6.70;6.00;;;;;;;16.08;55.51;98219.73;131943;1289;24374;-86
2023/03/30 11:36:57;;;;;;;8.90;6.60;;;;;;;16.16;55.60;98218.13;131900;1289;22665;-86
2023/03/30 11:40:00;;;;;;;9.90;7.00;;;;;;;16.24;55.57;98211.08;131911;1289;25394;-86
2023/03/30 11:43:03;;;;;;;11.60;8.30;;;;;;;16.32;55.33;98208.31;131976;1289;24261;-86
2023/03/30 11:46:06;;;;;;;12.20;7.90;;;;;;;16.46;55.29;98194.90;131938;1289;22578;-85
2023/03/30 11:49:09;;;;;;;9.20;5.80;;;;;;;16.67;55.41;98184.75;131896;1289;22700;-87
2023/03/30 11:52:12;;;;;;;11.10;6.70;;;;;;;16.76;54.63;98176.90;131922;1289;22543;-87
2023/03/30 11:55:15;;;;;;;6.60;5.40;;;;;;;16.77;54.44;98171.31;131904;1289;25309;-87
2023/03/30 11:58:18;;;;;;;8.90;5.80;;;;;;;16.84;54.59;98164.30;131914;1289;22658;-87
2023/03/30 12:01:21;;;;;;;8.30;5.30;;;;;;;16.93;54.27;98168.41;131956;1289;22540;-87
2023/03/30 12:04:24;;;;;;;8.40;5.80;;;;;;;16.96;54.54;98162.22;131873;1289;25252;-88
2023/03/30 12:07:27;;;;;;;6.60;4.40;;;;;;;17.05;54.58;98155.64;133128;1289;22949;-82
2023/03/30 12:10:30;;;;;;;5.80;4.80;;;;;;;17.12;54.46;98155.30;134247;1289;22653;-83
2023/03/30 12:13:32;;;;;;;7.20;5.20;;;;;;;17.14;54.31;98161.11;134214;1288;22492;-83
2023/03/30 12:16:35;;;;;;;7.50;4.90;;;;;;;17.10;54.05;98169.55;132900;1289;22525;-86
2023/03/30 12:19:38;;;;;;;7.10;5.90;;;;;;;16.93;53.35;98170.41;132502;1289;22682;-86
2023/03/30 12:22:41;;;;;;;7.90;5.00;;;;;;;16.68;53.42;98173.95;132395;1289;23403;-87
2023/03/30 12:25:44;;;;;;;4.60;3.80;;;;;;;16.38;53.39;98176.18;132106;1289;22555;-87
2023/03/30 12:28:47;;;;;;;9.00;5.10;;;;;;;16.10;53.70;98177.38;131870;1289;24983;-87
2023/03/30 12:31:50;;;;;;;5.20;4.30;;;;;;;15.86;54.30;98160.89;131878;1289;22730;-87
2023/03/30 12:34:53;;;;;;;6.80;5.00;;;;;;;15.71;54.65;98155.98;131899;1289;25286;-86
2023/03/30 12:37:56;;;;;;;6.80;4.80;;;;;;;15.65;55.12;98154.35;131928;1289;25555;-87
2023/03/30 12:41:00;;;;;;;7.10;3.90;;;;;;;15.66;55.60;98157.43;131936;1277;24289;-87
2023/03/30 12:44:03;;;;;;;8.90;4.30;;;;;;;15.65;55.89;98156.09;131925;1289;22617;-87
2023/03/30 12:47:08;;;;;;;11.30;4.30;;;;;;;15.63;56.19;98152.83;131968;1289;25311;-84
2023/03/30 12:50:12;;;;;;;6.90;3.90;;;;;;;15.59;55.99;98154.23;131948;1289;25281;-86
2023/03/30 12:53:15;;;;;;;7.00;4.50;;;;;;;15.53;56.37;98158.92;131914;1289;25311;-86
2023/03/30 12:56:18;;;;;;;7.70;4.30;;;;;;;15.44;56.80;98159.11;131965;1289;22613;-86
2023/03/30 12:59:20;;;;;;;8.20;4.50;;;;;;;15.33;57.08;98152.77;132940;1289;22556;-87
2023/03/30 13:02:23;;;;;;;5.60;3.80;;;;;;;15.23;57.30;98146.69;131945;1289;22593;-86
2023/03/30 13:05:26;;;;;;;7.90;3.90;;;;;;;15.15;57.64;98142.41;131932;1287;22670;-87
2023/03/30 13:08:29;;;;;;;12.90;5.50;;;;;;;15.07;57.89;98140.93;131968;1289;22713;-85
2023/03/30 13:11:32;;;;;;;7.30;4.70;;;;;;;14.99;58.28;98133.69;131928;1289;22547;-86
2023/03/30 13:14:37;;;;;;;5.50;4.10;;;;;;;14.95;58.81;98136.95;131879;1289;22586;-86
2023/03/30 13:17:40;;;;;;;8.40;4.50;;;;;;;14.91;59.01;98136.95;131989;1289;22682;-87
2023/03/30 13:20:43;;;;;;;8.90;4.00;;;;;;;14.88;59.14;98145.21;132102;1289;22654;-86
2023/03/30 13:23:46;;;;;;;6.40;3.30;;;;;;;14.85;59.04;98145.90;132064;1289;22512;-86
2023/03/30 13:26:48;;;;;;;8.70;5.10;;;;;;;14.91;59.39;98151.23;131963;1267;22756;-85
2023/03/30 13:29:51;;;;;;;6.90;3.90;;;;;;;14.96;59.66;98148.52;131967;1289;22609;-85
2023/03/30 13:32:54;;;;;;;7.40;3.80;;;;;;;15.04;59.65;98149.85;131935;1289;22552;-86
2023/03/30 13:35:57;;;;;;;10.70;6.80;;;;;;;15.10;59.81;98149.50;132012;1289;22569;-88
2023/03/30 13:39:00;;;;;;;14.30;4.70;;;;;;;15.08;59.75;98150.49;132044;1289;25330;-86
2023/03/30 13:42:03;;;;;;;6.40;4.20;;;;;;;15.00;59.51;98142.96;132585;1288;25423;-86
2023/03/30 13:45:06;;;;;;;8.90;3.90;;;;;;;14.93;59.82;98140.05;132455;1289;22536;-88
2023/03/30 13:48:08;;;;;;;9.30;4.40;;;;;;;14.86;60.01;98137.21;132099;1289;22649;-87
2023/03/30 13:51:11;;;;;;;7.60;3.90;;;;;;;14.80;60.40;98132.00;132772;1289;22546;-84
2023/03/30 13:54:14;;;;;;;6.90;4.10;;;;;;;14.76;60.60;98129.25;133635;1289;22558;-85
2023/03/30 13:57:17;;;;;;;8.00;4.60;;;;;;;14.73;60.95;98126.27;133576;1289;22568;-85
2023/03/30 14:00:20;;;;;;;12.40;6.80;;;;;;;14.71;61.26;98125.05;133302;1289;22546;-86
2023/03/30 14:03:23;;;;;;;9.90;6.20;;;;;;;14.68;61.56;98125.29;132277;1289;22598;-87
2023/03/30 14:06:26;;;;;;;8.80;6.70;;;;;;;14.65;62.04;98130.20;132326;1289;23948;-87